Alboraya, Spain
Current Conditions -  °F | °C
As of 10:00 AM on Friday 31 Oct 2014 (Local Time) from LEVC Reporting Station
Few Clouds Few Clouds  
Wind Chill: 68°   Ceiling: Unl
Heat Index: 68°   Visibility: 6mi
Dew Point: 57°   Wind: 6mph
Humidity: 68%   Direction: 300°WNW
Pressure: 30.27"   Gusts: NA
Location:  39.5°N, 0.35°W
Report Text: LEVC 310900Z 30005KT 280V340 9999 FEW035 20/14 Q1025 NOSIG
Loading
Personal Weather Stations






























Interactive Weather Map
Tropical Storm Tracking
New forecast layout! Learn more

10-Day Weather Forecast

Advertisements
Track Severe Weather on mobile